Arklow Muse — EINV3 — position and weather

sailwx.info

Track history (hours):
 
Tides and Currents Weather Stations Pressure Air Temp Water Temp Dewpoint Dewpoint Depression Visibility Wind Speed Wind Dir Waves Ship Positions

Arklow Muse

Last reported at 2018-Feb-20 18:12 UTC. Time now 2018-Feb-21 15:45 UTC.
Position N 51°16' W 010°44'.

Length 136 m; draft 5.4 m.

Type: Cargo ship. MMSI: 250002821.

Date/timePositionNaut miles runAvg speedWind from/ knotsBaromVisibWave heightAir tempDewpointWater temp
2018-Feb-20 18:12N 51°16' W 010°44'210.3
2018-Feb-20 17:59N 51°18' W 010°44'510.3
2018-Feb-20 17:29N 51°23' W 010°44'  
2018-Feb-16 16:16N 52°31' W 009°50'2413.1
2018-Feb-16 14:25N 52°18' W 010°23'410.7
2018-Feb-16 14:00N 52°15' W 010°29'32 9.0
2018-Feb-16 10:24N 51°44' W 010°40'410.1
2018-Feb-16 09:58N 51°40' W 010°36'510.7
2018-Feb-16 09:29N 51°36' W 010°32'510.3
2018-Feb-16 09:00N 51°32' W 010°28'5 9.5
2018-Feb-16 08:29N 51°29' W 010°21'4 9.3
2018-Feb-16 08:00N 51°27' W 010°15'5 9.4
2018-Feb-16 07:30N 51°25' W 010°07'5 9.1
2018-Feb-16 07:00N 51°24' W 010°01'4 8.9
2018-Feb-16 06:30N 51°22' W 009°54'4 8.7
2018-Feb-16 06:00N 51°21' W 009°47'4 8.9
2018-Feb-16 05:30N 51°20' W 009°40'4 8.3
2018-Feb-16 05:00N 51°21' W 009°34'4 8.4
2018-Feb-16 04:31N 51°22' W 009°28'4 8.9
2018-Feb-16 04:00N 51°23' W 009°21'5 9.1
2018-Feb-16 03:30N 51°24' W 009°14'5 9.3
2018-Feb-16 03:01N 51°25' W 009°06'5 9.7
2018-Feb-16 02:30N 51°26' W 008°59'5 9.8
2018-Feb-16 02:00N 51°27' W 008°51'510.0
2018-Feb-16 01:30N 51°28' W 008°43'510.1
2018-Feb-16 01:00N 51°30' W 008°35'510.8
2018-Feb-16 00:30N 51°31' W 008°27'510.9
2018-Feb-16 00:00N 51°34' W 008°20'510.8
2018-Feb-15 23:30N 51°37' W 008°12'611.4
2018-Feb-15 23:00N 51°40' W 008°04'611.6
2018-Feb-15 22:30N 51°43' W 007°56'611.5
2018-Feb-15 22:00N 51°46' W 007°48'611.3
2018-Feb-15 21:30N 51°49' W 007°40'611.2
2018-Feb-15 21:00N 51°52' W 007°33'611.6
2018-Feb-15 20:30N 51°55' W 007°25'611.8
2018-Feb-15 20:00N 51°58' W 007°17'611.1
2018-Feb-15 19:30N 52°01' W 007°10'611.2
2018-Feb-15 19:00N 52°05' W 007°03'510.3
2018-Feb-15 18:31N 52°09' W 006°58'510.1
2018-Feb-15 18:00N 52°14' W 006°57'3 6.5
2018-Feb-15 17:30N 52°16' W 007°01'0 0.8
2018-Feb-15 17:00N 52°16' W 007°02'0 0.0
2018-Feb-15 16:30N 52°16' W 007°02'0 0.0
2018-Feb-15 16:01N 52°16' W 007°02'0 0.0
2018-Feb-15 15:30N 52°16' W 007°02'0 0.0
2018-Feb-15 15:00N 52°16' W 007°02'0 0.0
2018-Feb-15 14:30N 52°16' W 007°02'0 0.0
2018-Feb-15 14:00N 52°16' W 007°02'0 0.0
2018-Feb-15 13:30N 52°16' W 007°02'0 0.0
2018-Feb-15 13:00N 52°16' W 007°02'0 0.0
2018-Feb-15 12:30N 52°16' W 007°02'0 0.0
2018-Feb-15 12:00N 52°16' W 007°02'0 0.0
2018-Feb-15 11:30N 52°16' W 007°02'0 0.0
2018-Feb-15 11:00N 52°16' W 007°02'0 0.0
2018-Feb-15 10:30N 52°16' W 007°02'0 0.0
2018-Feb-15 10:00N 52°16' W 007°02'0 0.0
2018-Feb-15 09:30N 52°16' W 007°02'0 0.0
2018-Feb-15 09:00N 52°16' W 007°02'0 0.0
2018-Feb-15 08:30N 52°16' W 007°02'0 0.0
2018-Feb-15 08:00N 52°16' W 007°02'0 0.0
2018-Feb-15 07:30N 52°16' W 007°02'0 0.0
2018-Feb-15 07:00N 52°16' W 007°02'0 0.0
2018-Feb-15 06:24N 52°16' W 007°02'0 0.0
2018-Feb-15 06:00N 52°16' W 007°02'0 0.0
2018-Feb-15 05:30N 52°16' W 007°02'0 0.0
2018-Feb-15 05:00N 52°16' W 007°02'0 0.0
2018-Feb-15 04:30N 52°16' W 007°02'0 0.0
2018-Feb-15 04:00N 52°16' W 007°02'0 0.0
2018-Feb-15 03:30N 52°16' W 007°02'0 0.0
2018-Feb-15 03:00N 52°16' W 007°02'0 0.0
2018-Feb-15 02:30N 52°16' W 007°02'0 0.0
2018-Feb-15 02:00N 52°16' W 007°02'0 0.0
2018-Feb-15 01:30N 52°16' W 007°02'0 0.0
2018-Feb-15 01:00N 52°16' W 007°02'0 0.0
2018-Feb-15 00:30N 52°16' W 007°02'0 0.0
2018-Feb-15 00:00N 52°16' W 007°02'0 0.0
2018-Feb-14 23:30N 52°16' W 007°02'0 0.0
2018-Feb-14 23:00N 52°16' W 007°02'0 0.0
2018-Feb-14 22:27N 52°16' W 007°02'0 0.0
2018-Feb-14 22:00N 52°16' W 007°02'0 0.0
2018-Feb-14 21:30N 52°16' W 007°02'0 0.0
2018-Feb-14 21:00N 52°16' W 007°02'0 0.0
2018-Feb-14 20:30N 52°16' W 007°02'0 0.0
2018-Feb-14 20:00N 52°16' W 007°02'0 0.0
2018-Feb-14 19:30N 52°16' W 007°02'0 0.0
2018-Feb-14 18:57N 52°16' W 007°02'0 0.0
2018-Feb-14 18:27N 52°16' W 007°02'0 0.0
2018-Feb-14 18:00N 52°16' W 007°02'0 0.0
2018-Feb-14 17:30N 52°16' W 007°02'0 0.0
2018-Feb-14 16:57N 52°16' W 007°02'0 0.0
2018-Feb-14 16:30N 52°16' W 007°02'0 0.0
2018-Feb-14 16:00N 52°16' W 007°02'0 0.0
2018-Feb-14 15:30N 52°16' W 007°02'0 0.0
2018-Feb-14 15:00N 52°16' W 007°02'0 0.0
2018-Feb-14 14:30N 52°16' W 007°02'0 0.0
2018-Feb-14 13:57N 52°16' W 007°02'0 0.0
2018-Feb-14 13:30N 52°16' W 007°02'0 0.0
2018-Feb-14 13:00N 52°16' W 007°02'0 0.0
2018-Feb-14 12:30N 52°16' W 007°02'0 0.0
2018-Feb-14 12:00N 52°16' W 007°02'0 0.0
2018-Feb-14 11:27N 52°16' W 007°02'0 0.0
2018-Feb-14 10:57N 52°16' W 007°02'0 0.0
2018-Feb-14 10:30N 52°16' W 007°02'0 0.0
2018-Feb-14 10:00N 52°16' W 007°02'0 0.0
2018-Feb-14 09:30N 52°16' W 007°02'0 0.0
2018-Feb-14 09:00N 52°16' W 007°02'0 0.0
2018-Feb-14 08:30N 52°16' W 007°02'0 0.0
2018-Feb-14 08:00N 52°16' W 007°02'0 0.0
2018-Feb-14 07:30N 52°16' W 007°02'0 0.0
2018-Feb-14 07:00N 52°16' W 007°02'0 0.0
2018-Feb-14 06:30N 52°16' W 007°02'0 0.0
2018-Feb-14 06:00N 52°16' W 007°02'0 0.0
2018-Feb-14 05:30N 52°16' W 007°02'0 0.0
2018-Feb-14 05:00N 52°16' W 007°02'0 0.0
2018-Feb-14 04:27N 52°16' W 007°02'0 0.0
2018-Feb-14 04:00N 52°16' W 007°02'0 0.0
2018-Feb-14 03:30N 52°16' W 007°02'0 0.0
2018-Feb-14 03:00N 52°16' W 007°02'0 0.0
2018-Feb-14 02:30N 52°16' W 007°02'0 0.0
2018-Feb-14 02:00N 52°16' W 007°02'0 0.0
2018-Feb-14 01:27N 52°16' W 007°02'0 0.0
2018-Feb-14 01:00N 52°16' W 007°02'0 0.0
2018-Feb-14 00:30N 52°16' W 007°02'0 0.0
2018-Feb-14 00:00N 52°16' W 007°02'0 0.0
2018-Feb-13 23:30N 52°16' W 007°02'0 0.0
2018-Feb-13 23:00N 52°16' W 007°02'0 0.0
2018-Feb-13 22:30N 52°16' W 007°02'0 0.0
2018-Feb-13 21:57N 52°16' W 007°02'0 0.0
2018-Feb-13 21:30N 52°16' W 007°02'0 0.0
2018-Feb-13 21:00N 52°16' W 007°02'0 0.0
2018-Feb-13 20:30N 52°16' W 007°02'0 0.0
2018-Feb-13 20:00N 52°16' W 007°02'0 0.0
2018-Feb-13 19:30N 52°16' W 007°02'0 0.0
2018-Feb-13 19:00N 52°16' W 007°02'0 0.0
2018-Feb-13 18:30N 52°16' W 007°02'0 0.0
2018-Feb-13 17:59N 52°16' W 007°02'0 0.0
2018-Feb-13 17:29N 52°16' W 007°02'0 0.0
2018-Feb-13 16:59N 52°16' W 007°02'0 0.0
2018-Feb-13 16:29N 52°16' W 007°02'0 0.0
2018-Feb-13 15:59N 52°16' W 007°02'0 0.0
2018-Feb-13 15:23N 52°16' W 007°02'0 0.0
2018-Feb-13 14:59N 52°16' W 007°02'0 0.0
2018-Feb-13 14:29N 52°16' W 007°02'0 0.0
2018-Feb-13 13:59N 52°16' W 007°02'0 0.0
2018-Feb-13 13:29N 52°16' W 007°02'0 0.0
2018-Feb-13 12:59N 52°16' W 007°02'0 0.0
2018-Feb-13 12:29N 52°16' W 007°02'0 0.0
2018-Feb-13 11:59N 52°16' W 007°02'0 0.0
2018-Feb-13 11:29N 52°16' W 007°02'0 0.0
2018-Feb-13 10:59N 52°16' W 007°02'0 0.0
2018-Feb-13 10:29N 52°16' W 007°02'0 0.0
2018-Feb-13 09:56N 52°16' W 007°02'0 0.0
2018-Feb-13 09:29N 52°16' W 007°02'0 0.0
2018-Feb-13 08:59N 52°16' W 007°02'0 0.0
2018-Feb-13 08:29N 52°16' W 007°02'0 0.0
2018-Feb-13 07:59N 52°16' W 007°02'0 0.0
2018-Feb-13 07:29N 52°16' W 007°02'0 0.0
2018-Feb-13 06:59N 52°16' W 007°02'0 0.0
2018-Feb-13 06:29N 52°16' W 007°02'0 0.0
2018-Feb-13 05:59N 52°16' W 007°02'0 0.0
2018-Feb-13 05:30N 52°16' W 007°02'0 0.0
2018-Feb-13 05:00N 52°16' W 007°02'1 2.6
2018-Feb-13 04:30N 52°17' W 006°60'3 5.9
2018-Feb-13 04:00N 52°14' W 006°57'5 9.7
2018-Feb-13 03:30N 52°09' W 006°57'0 0.8
2018-Feb-13 02:57N 52°09' W 006°58'0 0.0
2018-Feb-13 02:29N 52°09' W 006°58'0 0.0
2018-Feb-13 01:58N 52°09' W 006°58'0 0.0
2018-Feb-13 01:25N 52°09' W 006°58'0 0.0
2018-Feb-13 01:00N 52°09' W 006°58'0 0.0
2018-Feb-13 00:28N 52°09' W 006°58'0 0.0
2018-Feb-12 23:58N 52°09' W 006°58'0 0.0
2018-Feb-12 23:30N 52°09' W 006°58'0 0.0
2018-Feb-12 22:57N 52°09' W 006°58'0 0.0
2018-Feb-12 22:30N 52°09' W 006°58'0 0.0
2018-Feb-12 22:00N 52°09' W 006°58'0 0.1
2018-Feb-12 21:30N 52°09' W 006°58'0 0.1
2018-Feb-12 21:00N 52°09' W 006°58'0 0.0
2018-Feb-12 20:28N 52°09' W 006°58'0 0.0
2018-Feb-12 19:58N 52°09' W 006°58'0 0.0
2018-Feb-12 19:22N 52°09' W 006°58'0 0.0
2018-Feb-12 18:58N 52°09' W 006°58'0 0.1
2018-Feb-12 18:27N 52°09' W 006°58'0 0.0
2018-Feb-12 17:56N 52°09' W 006°58'0 0.0
2018-Feb-12 17:26N 52°09' W 006°58'0 0.0
2018-Feb-12 16:58N 52°09' W 006°58'0 0.0
2018-Feb-12 16:28N 52°09' W 006°58'0 0.0
2018-Feb-12 15:58N 52°09' W 006°58'0 0.0
2018-Feb-12 15:16N 52°09' W 006°58'0 0.0
2018-Feb-12 14:58N 52°09' W 006°58'0 0.0
2018-Feb-12 14:28N 52°09' W 006°58'0 0.0
2018-Feb-12 13:58N 52°09' W 006°58'0 0.0
2018-Feb-12 13:28N 52°09' W 006°58'0 0.0
2018-Feb-12 13:00N 52°09' W 006°58'0 0.0
2018-Feb-12 12:27N 52°09' W 006°58'0 0.0
2018-Feb-12 12:00N 52°09' W 006°58'0 0.0
2018-Feb-12 11:26N 52°09' W 006°58'0 0.0
2018-Feb-12 10:56N 52°09' W 006°58'0 0.0
2018-Feb-12 10:28N 52°09' W 006°58'0 0.1
2018-Feb-12 09:58N 52°09' W 006°58'0 0.1
2018-Feb-12 09:28N 52°09' W 006°58'0 0.1
2018-Feb-12 08:58N 52°09' W 006°58'0 0.0
2018-Feb-12 08:28N 52°09' W 006°58'0 0.0
2018-Feb-12 07:52N 52°09' W 006°58'0 0.0
2018-Feb-12 07:28N 52°09' W 006°58'0 0.0
2018-Feb-12 06:58N 52°09' W 006°58'0 0.3
2018-Feb-12 06:28N 52°09' W 006°58'0 0.1
2018-Feb-12 05:52N 52°09' W 006°58'0 0.0
2018-Feb-12 05:28N 52°09' W 006°58'0 0.0
2018-Feb-12 04:58N 52°09' W 006°58'0 0.0
2018-Feb-12 04:28N 52°09' W 006°58'0 0.0
2018-Feb-12 03:55N 52°09' W 006°58'0 0.0
2018-Feb-12 03:28N 52°09' W 006°58'0 0.0
2018-Feb-12 02:58N 52°09' W 006°58'0 0.0
2018-Feb-12 02:22N 52°09' W 006°58'0 0.0
2018-Feb-12 01:58N 52°09' W 006°58'0 0.0
2018-Feb-12 01:28N 52°09' W 006°58'0 0.0
2018-Feb-12 00:58N 52°09' W 006°58'0 0.4
2018-Feb-12 00:30N 52°09' W 006°58'4 7.2
2018-Feb-12 00:00N 52°05' W 006°57'612.1
2018-Feb-11 23:30N 51°59' W 006°58'611.8
2018-Feb-11 23:00N 51°54' W 006°58'  
Track history (hours):
 
Tides and Currents Weather Stations Pressure Air Temp Water Temp Dewpoint Dewpoint Depression Visibility Wind Speed Wind Dir Waves Ship Positions

Arklow Muse

Last reported at 2018-Feb-20 18:12 UTC. Time now 2018-Feb-21 15:45 UTC.
Position N 51°16' W 010°44'.

Length 136 m; draft 5.4 m.

Type: Cargo ship. MMSI: 250002821.

Date/timePositionNaut miles runAvg speedWind from/ knotsBaromVisibWave heightAir tempDewpointWater temp
2018-Feb-20 18:12N 51°16' W 010°44'210.3
2018-Feb-20 17:59N 51°18' W 010°44'510.3
2018-Feb-20 17:29N 51°23' W 010°44'  
2018-Feb-16 16:16N 52°31' W 009°50'2413.1
2018-Feb-16 14:25N 52°18' W 010°23'410.7
2018-Feb-16 14:00N 52°15' W 010°29'32 9.0
2018-Feb-16 10:24N 51°44' W 010°40'410.1
2018-Feb-16 09:58N 51°40' W 010°36'510.7
2018-Feb-16 09:29N 51°36' W 010°32'510.3
2018-Feb-16 09:00N 51°32' W 010°28'5 9.5
2018-Feb-16 08:29N 51°29' W 010°21'4 9.3
2018-Feb-16 08:00N 51°27' W 010°15'5 9.4
2018-Feb-16 07:30N 51°25' W 010°07'5 9.1
2018-Feb-16 07:00N 51°24' W 010°01'4 8.9
2018-Feb-16 06:30N 51°22' W 009°54'4 8.7
2018-Feb-16 06:00N 51°21' W 009°47'4 8.9
2018-Feb-16 05:30N 51°20' W 009°40'4 8.3
2018-Feb-16 05:00N 51°21' W 009°34'4 8.4
2018-Feb-16 04:31N 51°22' W 009°28'4 8.9
2018-Feb-16 04:00N 51°23' W 009°21'5 9.1
2018-Feb-16 03:30N 51°24' W 009°14'5 9.3
2018-Feb-16 03:01N 51°25' W 009°06'5 9.7
2018-Feb-16 02:30N 51°26' W 008°59'5 9.8
2018-Feb-16 02:00N 51°27' W 008°51'510.0
2018-Feb-16 01:30N 51°28' W 008°43'510.1
2018-Feb-16 01:00N 51°30' W 008°35'510.8
2018-Feb-16 00:30N 51°31' W 008°27'510.9
2018-Feb-16 00:00N 51°34' W 008°20'510.8
2018-Feb-15 23:30N 51°37' W 008°12'611.4
2018-Feb-15 23:00N 51°40' W 008°04'611.6
2018-Feb-15 22:30N 51°43' W 007°56'611.5
2018-Feb-15 22:00N 51°46' W 007°48'611.3
2018-Feb-15 21:30N 51°49' W 007°40'611.2
2018-Feb-15 21:00N 51°52' W 007°33'611.6
2018-Feb-15 20:30N 51°55' W 007°25'611.8
2018-Feb-15 20:00N 51°58' W 007°17'611.1
2018-Feb-15 19:30N 52°01' W 007°10'611.2
2018-Feb-15 19:00N 52°05' W 007°03'510.3
2018-Feb-15 18:31N 52°09' W 006°58'510.1
2018-Feb-15 18:00N 52°14' W 006°57'3 6.5
2018-Feb-15 17:30N 52°16' W 007°01'0 0.8
2018-Feb-15 17:00N 52°16' W 007°02'0 0.0
2018-Feb-15 16:30N 52°16' W 007°02'0 0.0
2018-Feb-15 16:01N 52°16' W 007°02'0 0.0
2018-Feb-15 15:30N 52°16' W 007°02'0 0.0
2018-Feb-15 15:00N 52°16' W 007°02'0 0.0
2018-Feb-15 14:30N 52°16' W 007°02'0 0.0
2018-Feb-15 14:00N 52°16' W 007°02'0 0.0
2018-Feb-15 13:30N 52°16' W 007°02'0 0.0
2018-Feb-15 13:00N 52°16' W 007°02'0 0.0
2018-Feb-15 12:30N 52°16' W 007°02'0 0.0
2018-Feb-15 12:00N 52°16' W 007°02'0 0.0
2018-Feb-15 11:30N 52°16' W 007°02'0 0.0
2018-Feb-15 11:00N 52°16' W 007°02'0 0.0
2018-Feb-15 10:30N 52°16' W 007°02'0 0.0
2018-Feb-15 10:00N 52°16' W 007°02'0 0.0
2018-Feb-15 09:30N 52°16' W 007°02'0 0.0
2018-Feb-15 09:00N 52°16' W 007°02'0 0.0
2018-Feb-15 08:30N 52°16' W 007°02'0 0.0
2018-Feb-15 08:00N 52°16' W 007°02'0 0.0
2018-Feb-15 07:30N 52°16' W 007°02'0 0.0
2018-Feb-15 07:00N 52°16' W 007°02'0 0.0
2018-Feb-15 06:24N 52°16' W 007°02'0 0.0
2018-Feb-15 06:00N 52°16' W 007°02'0 0.0
2018-Feb-15 05:30N 52°16' W 007°02'0 0.0
2018-Feb-15 05:00N 52°16' W 007°02'0 0.0
2018-Feb-15 04:30N 52°16' W 007°02'0 0.0
2018-Feb-15 04:00N 52°16' W 007°02'0 0.0
2018-Feb-15 03:30N 52°16' W 007°02'0 0.0
2018-Feb-15 03:00N 52°16' W 007°02'0 0.0
2018-Feb-15 02:30N 52°16' W 007°02'0 0.0
2018-Feb-15 02:00N 52°16' W 007°02'0 0.0
2018-Feb-15 01:30N 52°16' W 007°02'0 0.0
2018-Feb-15 01:00N 52°16' W 007°02'0 0.0
2018-Feb-15 00:30N 52°16' W 007°02'0 0.0
2018-Feb-15 00:00N 52°16' W 007°02'0 0.0
2018-Feb-14 23:30N 52°16' W 007°02'0 0.0
2018-Feb-14 23:00N 52°16' W 007°02'0 0.0
2018-Feb-14 22:27N 52°16' W 007°02'0 0.0
2018-Feb-14 22:00N 52°16' W 007°02'0 0.0
2018-Feb-14 21:30N 52°16' W 007°02'0 0.0
2018-Feb-14 21:00N 52°16' W 007°02'0 0.0
2018-Feb-14 20:30N 52°16' W 007°02'0 0.0
2018-Feb-14 20:00N 52°16' W 007°02'0 0.0
2018-Feb-14 19:30N 52°16' W 007°02'0 0.0
2018-Feb-14 18:57N 52°16' W 007°02'0 0.0
2018-Feb-14 18:27N 52°16' W 007°02'0 0.0
2018-Feb-14 18:00N 52°16' W 007°02'0 0.0
2018-Feb-14 17:30N 52°16' W 007°02'0 0.0
2018-Feb-14 16:57N 52°16' W 007°02'0 0.0
2018-Feb-14 16:30N 52°16' W 007°02'0 0.0
2018-Feb-14 16:00N 52°16' W 007°02'0 0.0
2018-Feb-14 15:30N 52°16' W 007°02'0 0.0
2018-Feb-14 15:00N 52°16' W 007°02'0 0.0
2018-Feb-14 14:30N 52°16' W 007°02'0 0.0
2018-Feb-14 13:57N 52°16' W 007°02'0 0.0
2018-Feb-14 13:30N 52°16' W 007°02'0 0.0
2018-Feb-14 13:00N 52°16' W 007°02'0 0.0
2018-Feb-14 12:30N 52°16' W 007°02'0 0.0
2018-Feb-14 12:00N 52°16' W 007°02'0 0.0
2018-Feb-14 11:27N 52°16' W 007°02'0 0.0
2018-Feb-14 10:57N 52°16' W 007°02'0 0.0
2018-Feb-14 10:30N 52°16' W 007°02'0 0.0
2018-Feb-14 10:00N 52°16' W 007°02'0 0.0
2018-Feb-14 09:30N 52°16' W 007°02'0 0.0
2018-Feb-14 09:00N 52°16' W 007°02'0 0.0
2018-Feb-14 08:30N 52°16' W 007°02'0 0.0
2018-Feb-14 08:00N 52°16' W 007°02'0 0.0
2018-Feb-14 07:30N 52°16' W 007°02'0 0.0
2018-Feb-14 07:00N 52°16' W 007°02'0 0.0
2018-Feb-14 06:30N 52°16' W 007°02'0 0.0
2018-Feb-14 06:00N 52°16' W 007°02'0 0.0
2018-Feb-14 05:30N 52°16' W 007°02'0 0.0
2018-Feb-14 05:00N 52°16' W 007°02'0 0.0
2018-Feb-14 04:27N 52°16' W 007°02'0 0.0
2018-Feb-14 04:00N 52°16' W 007°02'0 0.0
2018-Feb-14 03:30N 52°16' W 007°02'0 0.0
2018-Feb-14 03:00N 52°16' W 007°02'0 0.0
2018-Feb-14 02:30N 52°16' W 007°02'0 0.0
2018-Feb-14 02:00N 52°16' W 007°02'0 0.0
2018-Feb-14 01:27N 52°16' W 007°02'0 0.0
2018-Feb-14 01:00N 52°16' W 007°02'0 0.0
2018-Feb-14 00:30N 52°16' W 007°02'0 0.0
2018-Feb-14 00:00N 52°16' W 007°02'0 0.0
2018-Feb-13 23:30N 52°16' W 007°02'0 0.0
2018-Feb-13 23:00N 52°16' W 007°02'0 0.0
2018-Feb-13 22:30N 52°16' W 007°02'0 0.0
2018-Feb-13 21:57N 52°16' W 007°02'0 0.0
2018-Feb-13 21:30N 52°16' W 007°02'0 0.0
2018-Feb-13 21:00N 52°16' W 007°02'0 0.0
2018-Feb-13 20:30N 52°16' W 007°02'0 0.0
2018-Feb-13 20:00N 52°16' W 007°02'0 0.0
2018-Feb-13 19:30N 52°16' W 007°02'0 0.0
2018-Feb-13 19:00N 52°16' W 007°02'0 0.0
2018-Feb-13 18:30N 52°16' W 007°02'0 0.0
2018-Feb-13 17:59N 52°16' W 007°02'0 0.0
2018-Feb-13 17:29N 52°16' W 007°02'0 0.0
2018-Feb-13 16:59N 52°16' W 007°02'0 0.0
2018-Feb-13 16:29N 52°16' W 007°02'0 0.0
2018-Feb-13 15:59N 52°16' W 007°02'0 0.0
2018-Feb-13 15:23N 52°16' W 007°02'0 0.0
2018-Feb-13 14:59N 52°16' W 007°02'0 0.0
2018-Feb-13 14:29N 52°16' W 007°02'0 0.0
2018-Feb-13 13:59N 52°16' W 007°02'0 0.0
2018-Feb-13 13:29N 52°16' W 007°02'0 0.0
2018-Feb-13 12:59N 52°16' W 007°02'0 0.0
2018-Feb-13 12:29N 52°16' W 007°02'0 0.0
2018-Feb-13 11:59N 52°16' W 007°02'0 0.0
2018-Feb-13 11:29N 52°16' W 007°02'0 0.0
2018-Feb-13 10:59N 52°16' W 007°02'0 0.0
2018-Feb-13 10:29N 52°16' W 007°02'0 0.0
2018-Feb-13 09:56N 52°16' W 007°02'0 0.0
2018-Feb-13 09:29N 52°16' W 007°02'0 0.0
2018-Feb-13 08:59N 52°16' W 007°02'0 0.0
2018-Feb-13 08:29N 52°16' W 007°02'0 0.0
2018-Feb-13 07:59N 52°16' W 007°02'0 0.0
2018-Feb-13 07:29N 52°16' W 007°02'0 0.0
2018-Feb-13 06:59N 52°16' W 007°02'0 0.0
2018-Feb-13 06:29N 52°16' W 007°02'0 0.0
2018-Feb-13 05:59N 52°16' W 007°02'0 0.0
2018-Feb-13 05:30N 52°16' W 007°02'0 0.0
2018-Feb-13 05:00N 52°16' W 007°02'1 2.6
2018-Feb-13 04:30N 52°17' W 006°60'3 5.9
2018-Feb-13 04:00N 52°14' W 006°57'5 9.7
2018-Feb-13 03:30N 52°09' W 006°57'0 0.8
2018-Feb-13 02:57N 52°09' W 006°58'0 0.0
2018-Feb-13 02:29N 52°09' W 006°58'0 0.0
2018-Feb-13 01:58N 52°09' W 006°58'0 0.0
2018-Feb-13 01:25N 52°09' W 006°58'0 0.0
2018-Feb-13 01:00N 52°09' W 006°58'0 0.0
2018-Feb-13 00:28N 52°09' W 006°58'0 0.0
2018-Feb-12 23:58N 52°09' W 006°58'0 0.0
2018-Feb-12 23:30N 52°09' W 006°58'0 0.0
2018-Feb-12 22:57N 52°09' W 006°58'0 0.0
2018-Feb-12 22:30N 52°09' W 006°58'0 0.0
2018-Feb-12 22:00N 52°09' W 006°58'0 0.1
2018-Feb-12 21:30N 52°09' W 006°58'0 0.1
2018-Feb-12 21:00N 52°09' W 006°58'0 0.0
2018-Feb-12 20:28N 52°09' W 006°58'0 0.0
2018-Feb-12 19:58N 52°09' W 006°58'0 0.0
2018-Feb-12 19:22N 52°09' W 006°58'0 0.0
2018-Feb-12 18:58N 52°09' W 006°58'0 0.1
2018-Feb-12 18:27N 52°09' W 006°58'0 0.0
2018-Feb-12 17:56N 52°09' W 006°58'0 0.0
2018-Feb-12 17:26N 52°09' W 006°58'0 0.0
2018-Feb-12 16:58N 52°09' W 006°58'0 0.0
2018-Feb-12 16:28N 52°09' W 006°58'0 0.0
2018-Feb-12 15:58N 52°09' W 006°58'0 0.0
2018-Feb-12 15:16N 52°09' W 006°58'0 0.0
2018-Feb-12 14:58N 52°09' W 006°58'0 0.0
2018-Feb-12 14:28N 52°09' W 006°58'0 0.0
2018-Feb-12 13:58N 52°09' W 006°58'0 0.0
2018-Feb-12 13:28N 52°09' W 006°58'0 0.0
2018-Feb-12 13:00N 52°09' W 006°58'0 0.0
2018-Feb-12 12:27N 52°09' W 006°58'0 0.0
2018-Feb-12 12:00N 52°09' W 006°58'0 0.0
2018-Feb-12 11:26N 52°09' W 006°58'0 0.0
2018-Feb-12 10:56N 52°09' W 006°58'0 0.0
2018-Feb-12 10:28N 52°09' W 006°58'0 0.1
2018-Feb-12 09:58N 52°09' W 006°58'0 0.1
2018-Feb-12 09:28N 52°09' W 006°58'0 0.1
2018-Feb-12 08:58N 52°09' W 006°58'0 0.0
2018-Feb-12 08:28N 52°09' W 006°58'0 0.0
2018-Feb-12 07:52N 52°09' W 006°58'0 0.0
2018-Feb-12 07:28N 52°09' W 006°58'0 0.0
2018-Feb-12 06:58N 52°09' W 006°58'0 0.3
2018-Feb-12 06:28N 52°09' W 006°58'0 0.1
2018-Feb-12 05:52N 52°09' W 006°58'0 0.0
2018-Feb-12 05:28N 52°09' W 006°58'0 0.0
2018-Feb-12 04:58N 52°09' W 006°58'0 0.0
2018-Feb-12 04:28N 52°09' W 006°58'0 0.0
2018-Feb-12 03:55N 52°09' W 006°58'0 0.0
2018-Feb-12 03:28N 52°09' W 006°58'0 0.0
2018-Feb-12 02:58N 52°09' W 006°58'0 0.0
2018-Feb-12 02:22N 52°09' W 006°58'0 0.0
2018-Feb-12 01:58N 52°09' W 006°58'0 0.0
2018-Feb-12 01:28N 52°09' W 006°58'0 0.0
2018-Feb-12 00:58N 52°09' W 006°58'0 0.4
2018-Feb-12 00:30N 52°09' W 006°58'4 7.2
2018-Feb-12 00:00N 52°05' W 006°57'612.1
2018-Feb-11 23:30N 51°59' W 006°58'611.8
2018-Feb-11 23:00N 51°54' W 006°58'  

Dump ship's entire track history